PWSweather.com
Personal Weather Stations
Station Observations
RAINMAN1
Jacksonville, FL 32224

Jacksonville, FL 32224

Lat: 30.28041649, Lon: -81.46911621

Elevation: 26

Station Type: Tycon TP1080WC

Latest ConditionsUpdated 6:40:01 AM EDT Tuesday, Jul 29, 2014
Currently Today's Max Today's Min Today's Average
Temperature 79.9°F26.6°C 83.3°F28.5°C 79.9°F26.6°C 81.7°F27.6°C
Dew Point 74.3°F23.5°C 79.9°F26.6°C 74.3°F23.5°C 78.2°F25.7°C
Winds 5.5 mph NW8.9 kmh NW 9.4 mph W15.1 kmh W - 6.3 mph 10.1 kmh
Wind Gusts 8.3 mph13.4 kmh 18.3 mph29.5 kmh - -
Humidity 83% 93% 83% 89%
Pressure 29.56 in1001.0 mb 29.59 in1002.0 mb 29.55 in1000.7 mb -
Hour Temp Dew Point Humidity Winds Wind Gusts Pressure Precip Precip Rate Daily Precip Total
06:40 AM 79.9°F26.6°C 74.3°F23.5°C 83% 5.5 mph NW8.9 kmh NW 8.3 mph13.4 kmh 29.56 in1001.0 mb 0.00 in0.0 mm 0.00 in/hr0.0 mm/hr 0.00 in0.0 mm
06:35 AM 79.9°F26.6°C 74.3°F23.5°C 83% 5.5 mph NW8.9 kmh NW 6.9 mph11.1 kmh 29.56 in1001.0 mb 0.00 in0.0 mm 0.00 in/hr0.0 mm/hr 0.00 in0.0 mm
06:30 AM 80.1°F26.7°C 74.5°F23.6°C 83% 5.2 mph WNW8.4 kmh WNW 7.6 mph12.2 kmh 29.56 in1001.0 mb 0.00 in0.0 mm 0.00 in/hr0.0 mm/hr 0.00 in0.0 mm
06:25 AM 80.2°F26.8°C 74.7°F23.7°C 83% 5.5 mph NW8.9 kmh NW 9.2 mph14.8 kmh 29.56 in1001.0 mb 0.00 in0.0 mm 0.00 in/hr0.0 mm/hr 0.00 in0.0 mm
06:20 AM 80.4°F26.9°C 74.8°F23.8°C 83% 5.5 mph NW8.9 kmh NW 9.2 mph14.8 kmh 29.56 in1001.0 mb 0.00 in0.0 mm 0.00 in/hr0.0 mm/hr 0.00 in0.0 mm
06:15 AM 80.4°F26.9°C 74.8°F23.8°C 83% 6.3 mph WNW10.1 kmh WNW 12.1 mph19.5 kmh 29.56 in1001.0 mb 0.00 in0.0 mm 0.00 in/hr0.0 mm/hr 0.00 in0.0 mm
06:10 AM 80.6°F27.0°C 75.0°F23.9°C 83% 8.0 mph WNW12.9 kmh WNW 12.1 mph19.5 kmh 29.56 in1001.0 mb 0.00 in0.0 mm 0.00 in/hr0.0 mm/hr 0.00 in0.0 mm
06:05 AM 81.0°F27.2°C 76.1°F24.5°C 85% 7.5 mph NW12.1 kmh NW 9.2 mph14.8 kmh 29.56 in1001.0 mb 0.00 in0.0 mm 0.00 in/hr0.0 mm/hr 0.00 in0.0 mm
06:00 AM 81.0°F27.2°C 76.1°F24.5°C 85% 7.3 mph WNW11.7 kmh WNW 13.6 mph21.9 kmh 29.55 in1000.7 mb 0.00 in0.0 mm 0.00 in/hr0.0 mm/hr 0.00 in0.0 mm
05:55 AM 81.0°F27.2°C 76.4°F24.7°C 86% 6.9 mph W11.1 kmh W 13.6 mph21.9 kmh 29.55 in1000.7 mb 0.00 in0.0 mm 0.00 in/hr0.0 mm/hr 0.00 in0.0 mm
05:50 AM 81.0°F27.2°C 76.4°F24.7°C 86% 6.1 mph WNW9.8 kmh WNW 9.2 mph14.8 kmh 29.56 in1001.0 mb 0.00 in0.0 mm 0.00 in/hr0.0 mm/hr 0.00 in0.0 mm
05:45 AM 80.8°F27.1°C 76.3°F24.6°C 86% 5.9 mph WNW9.5 kmh WNW 8.3 mph13.4 kmh 29.56 in1001.0 mb 0.00 in0.0 mm 0.00 in/hr0.0 mm/hr 0.00 in0.0 mm
05:40 AM 81.0°F27.2°C 76.4°F24.7°C 86% 5.6 mph W9.0 kmh W 9.2 mph14.8 kmh 29.56 in1001.0 mb 0.00 in0.0 mm 0.00 in/hr0.0 mm/hr 0.00 in0.0 mm
05:35 AM 81.0°F27.2°C 76.8°F24.9°C 87% 6.0 mph W9.7 kmh W 9.2 mph14.8 kmh 29.56 in1001.0 mb 0.00 in0.0 mm 0.00 in/hr0.0 mm/hr 0.00 in0.0 mm
05:30 AM 81.1°F27.3°C 77.0°F25.0°C 87% 5.8 mph W9.3 kmh W 9.2 mph14.8 kmh 29.56 in1001.0 mb 0.00 in0.0 mm 0.00 in/hr0.0 mm/hr 0.00 in0.0 mm
05:25 AM 81.3°F27.4°C 77.1°F25.1°C 87% 5.6 mph W9.0 kmh W 7.6 mph12.2 kmh 29.55 in1000.7 mb 0.00 in0.0 mm 0.00 in/hr0.0 mm/hr 0.00 in0.0 mm
05:20 AM 81.3°F27.4°C 77.1°F25.1°C 87% 7.0 mph W11.3 kmh W 10.7 mph17.2 kmh 29.56 in1001.0 mb 0.00 in0.0 mm 0.00 in/hr0.0 mm/hr 0.00 in0.0 mm
05:15 AM 81.5°F27.5°C 77.3°F25.2°C 87% 8.7 mph W14.0 kmh W 13.6 mph21.9 kmh 29.56 in1001.0 mb 0.00 in0.0 mm 0.00 in/hr0.0 mm/hr 0.00 in0.0 mm
05:10 AM 81.5°F27.5°C 77.3°F25.2°C 87% 6.6 mph NW10.6 kmh NW 13.6 mph21.9 kmh 29.56 in1001.0 mb 0.00 in0.0 mm 0.00 in/hr0.0 mm/hr 0.00 in0.0 mm
05:05 AM 81.3°F27.4°C 77.5°F25.3°C 88% 7.0 mph NW11.3 kmh NW 18.3 mph29.5 kmh 29.56 in1001.0 mb 0.00 in0.0 mm 0.00 in/hr0.0 mm/hr 0.00 in0.0 mm
05:00 AM 81.3°F27.4°C 77.5°F25.3°C 88% 8.5 mph W13.7 kmh W 18.3 mph29.5 kmh 29.55 in1000.7 mb 0.00 in0.0 mm 0.00 in/hr0.0 mm/hr 0.00 in0.0 mm
04:55 AM 81.5°F27.5°C 78.7°F25.9°C 91% 5.7 mph W9.2 kmh W 8.3 mph13.4 kmh 29.56 in1001.0 mb 0.00 in0.0 mm 0.00 in/hr0.0 mm/hr 0.00 in0.0 mm
04:50 AM 81.5°F27.5°C 79.0°F26.1°C 92% 5.2 mph WSW8.4 kmh WSW 6.9 mph11.1 kmh 29.55 in1000.7 mb 0.00 in0.0 mm 0.00 in/hr0.0 mm/hr 0.00 in0.0 mm
04:45 AM 81.5°F27.5°C 79.0°F26.1°C 92% 5.4 mph WNW8.7 kmh WNW 7.6 mph12.2 kmh 29.56 in1001.0 mb 0.00 in0.0 mm 0.00 in/hr0.0 mm/hr 0.00 in0.0 mm
04:40 AM 81.5°F27.5°C 79.0°F26.1°C 92% 5.4 mph WNW8.7 kmh WNW 8.3 mph13.4 kmh 29.56 in1001.0 mb 0.00 in0.0 mm 0.00 in/hr0.0 mm/hr 0.00 in0.0 mm
04:35 AM 81.5°F27.5°C 79.0°F26.1°C 92% 5.5 mph W8.9 kmh W 8.3 mph13.4 kmh 29.55 in1000.7 mb 0.00 in0.0 mm 0.00 in/hr0.0 mm/hr 0.00 in0.0 mm
04:30 AM 81.5°F27.5°C 79.0°F26.1°C 92% 6.5 mph W10.5 kmh W 10.7 mph17.2 kmh 29.55 in1000.7 mb 0.00 in0.0 mm 0.00 in/hr0.0 mm/hr 0.00 in0.0 mm
04:25 AM 81.7°F27.6°C 79.2°F26.2°C 92% 7.4 mph WNW11.9 kmh WNW 10.7 mph17.2 kmh 29.55 in1000.7 mb 0.00 in0.0 mm 0.00 in/hr0.0 mm/hr 0.00 in0.0 mm
04:20 AM 81.7°F27.6°C 79.2°F26.2°C 92% 6.2 mph WNW10.0 kmh WNW 9.8 mph15.8 kmh 29.55 in1000.7 mb 0.00 in0.0 mm 0.00 in/hr0.0 mm/hr 0.00 in0.0 mm
04:15 AM 81.5°F27.5°C 79.4°F26.3°C 93% 5.6 mph WNW9.0 kmh WNW 9.2 mph14.8 kmh 29.56 in1001.0 mb 0.00 in0.0 mm 0.00 in/hr0.0 mm/hr 0.00 in0.0 mm
04:10 AM 81.7°F27.6°C 79.5°F26.4°C 93% 6.5 mph WSW10.5 kmh WSW 7.6 mph12.2 kmh 29.55 in1000.7 mb 0.00 in0.0 mm 0.00 in/hr0.0 mm/hr 0.00 in0.0 mm
04:05 AM 81.7°F27.6°C 79.5°F26.4°C 93% 7.3 mph SW11.7 kmh SW 10.7 mph17.2 kmh 29.56 in1001.0 mb 0.00 in0.0 mm 0.00 in/hr0.0 mm/hr 0.00 in0.0 mm
04:00 AM 81.7°F27.6°C 79.5°F26.4°C 93% 7.7 mph WSW12.4 kmh WSW 12.1 mph19.5 kmh 29.56 in1001.0 mb 0.00 in0.0 mm 0.00 in/hr0.0 mm/hr 0.00 in0.0 mm
03:55 AM 81.7°F27.6°C 79.5°F26.4°C 93% 7.3 mph W11.7 kmh W 12.1 mph19.5 kmh 29.56 in1001.0 mb 0.00 in0.0 mm 0.00 in/hr0.0 mm/hr 0.00 in0.0 mm
03:50 AM 81.9°F27.7°C 79.7°F26.5°C 93% 6.5 mph W10.5 kmh W 9.8 mph15.8 kmh 29.56 in1001.0 mb 0.00 in0.0 mm 0.00 in/hr0.0 mm/hr 0.00 in0.0 mm
03:45 AM 82.0°F27.8°C 79.9°F26.6°C 93% 7.0 mph WSW11.3 kmh WSW 10.7 mph17.2 kmh 29.55 in1000.7 mb 0.00 in0.0 mm 0.00 in/hr0.0 mm/hr 0.00 in0.0 mm
03:40 AM 81.9°F27.7°C 79.7°F26.5°C 93% 8.3 mph W13.4 kmh W 12.1 mph19.5 kmh 29.56 in1001.0 mb 0.00 in0.0 mm 0.00 in/hr0.0 mm/hr 0.00 in0.0 mm
03:35 AM 81.9°F27.7°C 79.7°F26.5°C 93% 7.9 mph W12.7 kmh W 13.6 mph21.9 kmh 29.56 in1001.0 mb 0.00 in0.0 mm 0.00 in/hr0.0 mm/hr 0.00 in0.0 mm
03:30 AM 81.9°F27.7°C 79.7°F26.5°C 93% 6.5 mph WSW10.5 kmh WSW 13.6 mph21.9 kmh 29.56 in1001.0 mb 0.00 in0.0 mm 0.00 in/hr0.0 mm/hr 0.00 in0.0 mm
03:25 AM 81.9°F27.7°C 79.7°F26.5°C 93% 5.9 mph WSW9.5 kmh WSW 10.7 mph17.2 kmh 29.56 in1001.0 mb 0.00 in0.0 mm 0.00 in/hr0.0 mm/hr 0.00 in0.0 mm
03:20 AM 81.9°F27.7°C 79.7°F26.5°C 93% 6.6 mph WSW10.6 kmh WSW 12.1 mph19.5 kmh 29.55 in1000.7 mb 0.00 in0.0 mm 0.00 in/hr0.0 mm/hr 0.00 in0.0 mm
03:15 AM 81.9°F27.7°C 79.7°F26.5°C 93% 7.2 mph WSW11.6 kmh WSW 12.1 mph19.5 kmh 29.56 in1001.0 mb 0.00 in0.0 mm 0.00 in/hr0.0 mm/hr 0.00 in0.0 mm
03:10 AM 81.9°F27.7°C 79.7°F26.5°C 93% 8.8 mph W14.2 kmh W 12.1 mph19.5 kmh 29.56 in1001.0 mb 0.00 in0.0 mm 0.00 in/hr0.0 mm/hr 0.00 in0.0 mm
03:05 AM 81.7°F27.6°C 79.5°F26.4°C 93% 9.4 mph W15.1 kmh W 10.7 mph17.2 kmh 29.56 in1001.0 mb 0.00 in0.0 mm 0.00 in/hr0.0 mm/hr 0.00 in0.0 mm
03:00 AM 81.7°F27.6°C 79.5°F26.4°C 93% 8.2 mph WSW13.2 kmh WSW 10.7 mph17.2 kmh 29.56 in1001.0 mb 0.00 in0.0 mm 0.00 in/hr0.0 mm/hr 0.00 in0.0 mm
02:55 AM 81.5°F27.5°C 79.4°F26.3°C 93% 8.6 mph WSW13.8 kmh WSW 14.5 mph23.3 kmh 29.56 in1001.0 mb 0.00 in0.0 mm 0.00 in/hr0.0 mm/hr 0.00 in0.0 mm
02:50 AM 81.5°F27.5°C 79.4°F26.3°C 93% 8.9 mph WSW14.3 kmh WSW 14.5 mph23.3 kmh 29.56 in1001.0 mb 0.00 in0.0 mm 0.00 in/hr0.0 mm/hr 0.00 in0.0 mm
02:45 AM 81.5°F27.5°C 79.4°F26.3°C 93% 8.1 mph WSW13.0 kmh WSW 10.7 mph17.2 kmh 29.56 in1001.0 mb 0.00 in0.0 mm 0.00 in/hr0.0 mm/hr 0.00 in0.0 mm
02:40 AM 81.5°F27.5°C 79.0°F26.1°C 92% 7.1 mph W11.4 kmh W 10.7 mph17.2 kmh 29.56 in1001.0 mb 0.00 in0.0 mm 0.00 in/hr0.0 mm/hr 0.00 in0.0 mm
02:35 AM 81.5°F27.5°C 79.0°F26.1°C 92% 6.7 mph W10.8 kmh W 10.7 mph17.2 kmh 29.57 in1001.4 mb 0.00 in0.0 mm 0.00 in/hr0.0 mm/hr 0.00 in0.0 mm
02:30 AM 81.5°F27.5°C 79.0°F26.1°C 92% 7.4 mph S11.9 kmh S 10.7 mph17.2 kmh 29.56 in1001.0 mb 0.00 in0.0 mm 0.00 in/hr0.0 mm/hr 0.00 in0.0 mm
02:25 AM 81.5°F27.5°C 79.0°F26.1°C 92% 8.7 mph SE14.0 kmh SE 9.2 mph14.8 kmh 29.57 in1001.4 mb 0.00 in0.0 mm 0.00 in/hr0.0 mm/hr 0.00 in0.0 mm
02:20 AM 81.5°F27.5°C 78.7°F25.9°C 91% 7.9 mph S12.7 kmh S 9.2 mph14.8 kmh 29.56 in1001.0 mb 0.00 in0.0 mm 0.00 in/hr0.0 mm/hr 0.00 in0.0 mm
02:15 AM 81.7°F27.6°C 78.9°F26.1°C 91% 7.7 mph W12.4 kmh W 10.7 mph17.2 kmh 29.57 in1001.4 mb 0.00 in0.0 mm 0.00 in/hr0.0 mm/hr 0.00 in0.0 mm
02:10 AM 81.7°F27.6°C 78.9°F26.1°C 91% 7.8 mph W12.6 kmh W 10.7 mph17.2 kmh 29.57 in1001.4 mb 0.00 in0.0 mm 0.00 in/hr0.0 mm/hr 0.00 in0.0 mm
02:05 AM 81.9°F27.7°C 79.0°F26.1°C 91% 7.6 mph WSW12.2 kmh WSW 13.0 mph20.9 kmh 29.57 in1001.4 mb 0.00 in0.0 mm 0.00 in/hr0.0 mm/hr 0.00 in0.0 mm
02:00 AM 81.9°F27.7°C 79.0°F26.1°C 91% 7.4 mph WSW11.9 kmh WSW 13.0 mph20.9 kmh 29.57 in1001.4 mb 0.00 in0.0 mm 0.00 in/hr0.0 mm/hr 0.00 in0.0 mm
01:55 AM 81.9°F27.7°C 78.7°F25.9°C 90% 6.1 mph WSW9.8 kmh WSW 8.3 mph13.4 kmh 29.57 in1001.4 mb 0.00 in0.0 mm 0.00 in/hr0.0 mm/hr 0.00 in0.0 mm
01:50 AM 81.9°F27.7°C 78.7°F25.9°C 90% 4.9 mph WSW7.9 kmh WSW 6.9 mph11.1 kmh 29.57 in1001.4 mb 0.00 in0.0 mm 0.00 in/hr0.0 mm/hr 0.00 in0.0 mm
01:45 AM 81.9°F27.7°C 78.7°F25.9°C 90% 4.4 mph WSW7.1 kmh WSW 6.0 mph9.7 kmh 29.57 in1001.4 mb 0.00 in0.0 mm 0.00 in/hr0.0 mm/hr 0.00 in0.0 mm
01:40 AM 81.9°F27.7°C 78.7°F25.9°C 90% 4.9 mph SW7.9 kmh SW 9.2 mph14.8 kmh 29.56 in1001.0 mb 0.00 in0.0 mm 0.00 in/hr0.0 mm/hr 0.00 in0.0 mm
01:35 AM 82.0°F27.8°C 78.5°F25.8°C 89% 5.4 mph SW8.7 kmh SW 9.2 mph14.8 kmh 29.56 in1001.0 mb 0.00 in0.0 mm 0.00 in/hr0.0 mm/hr 0.00 in0.0 mm
01:30 AM 82.0°F27.8°C 78.5°F25.8°C 89% 5.4 mph WSW8.7 kmh WSW 8.3 mph13.4 kmh 29.57 in1001.4 mb 0.00 in0.0 mm 0.00 in/hr0.0 mm/hr 0.00 in0.0 mm
01:25 AM 82.0°F27.8°C 78.5°F25.8°C 89% 3.4 mph WSW5.5 kmh WSW 7.6 mph12.2 kmh 29.57 in1001.4 mb 0.00 in0.0 mm 0.00 in/hr0.0 mm/hr 0.00 in0.0 mm
01:20 AM 82.0°F27.8°C 78.2°F25.7°C 88% 3.2 mph SW5.1 kmh SW 6.0 mph9.7 kmh 29.57 in1001.4 mb 0.00 in0.0 mm 0.00 in/hr0.0 mm/hr 0.00 in0.0 mm
01:15 AM 82.2°F27.9°C 78.4°F25.8°C 88% 4.6 mph WSW7.4 kmh WSW 7.6 mph12.2 kmh 29.57 in1001.4 mb 0.00 in0.0 mm 0.00 in/hr0.0 mm/hr 0.00 in0.0 mm
01:10 AM 82.0°F27.8°C 78.2°F25.7°C 88% 3.9 mph NW6.3 kmh NW 7.6 mph12.2 kmh 29.57 in1001.4 mb 0.00 in0.0 mm 0.00 in/hr0.0 mm/hr 0.00 in0.0 mm
01:05 AM 82.2°F27.9°C 78.4°F25.8°C 88% 3.2 mph NW5.1 kmh NW 5.4 mph8.7 kmh 29.57 in1001.4 mb 0.00 in0.0 mm 0.00 in/hr0.0 mm/hr 0.00 in0.0 mm
01:00 AM 82.2°F27.9°C 78.4°F25.8°C 88% 4.0 mph WSW6.4 kmh WSW 6.9 mph11.1 kmh 29.57 in1001.4 mb 0.00 in0.0 mm 0.00 in/hr0.0 mm/hr 0.00 in0.0 mm
12:55 AM 82.4°F28.0°C 78.2°F25.7°C 87% 3.8 mph WSW6.1 kmh WSW 6.9 mph11.1 kmh 29.58 in1001.7 mb 0.00 in0.0 mm 0.00 in/hr0.0 mm/hr 0.00 in0.0 mm
12:50 AM 82.6°F28.1°C 78.4°F25.8°C 87% 3.3 mph WSW5.3 kmh WSW 5.4 mph8.7 kmh 29.57 in1001.4 mb 0.00 in0.0 mm 0.00 in/hr0.0 mm/hr 0.00 in0.0 mm
12:45 AM 82.6°F28.1°C 78.4°F25.8°C 87% 4.4 mph WSW7.1 kmh WSW 6.9 mph11.1 kmh 29.57 in1001.4 mb 0.00 in0.0 mm 0.00 in/hr0.0 mm/hr 0.00 in0.0 mm
12:40 AM 82.8°F28.2°C 78.2°F25.7°C 86% 5.5 mph WSW8.9 kmh WSW 6.9 mph11.1 kmh 29.58 in1001.7 mb 0.00 in0.0 mm 0.00 in/hr0.0 mm/hr 0.00 in0.0 mm
12:35 AM 82.9°F28.3°C 78.4°F25.8°C 86% 5.5 mph W8.9 kmh W 8.3 mph13.4 kmh 29.58 in1001.7 mb 0.00 in0.0 mm 0.00 in/hr0.0 mm/hr 0.00 in0.0 mm
12:30 AM 82.9°F28.3°C 78.4°F25.8°C 86% 5.4 mph WSW8.7 kmh WSW 8.3 mph13.4 kmh 29.58 in1001.7 mb 0.00 in0.0 mm 0.00 in/hr0.0 mm/hr 0.00 in0.0 mm
12:25 AM 82.9°F28.3°C 78.4°F25.8°C 86% 5.6 mph SW9.0 kmh SW 6.9 mph11.1 kmh 29.58 in1001.7 mb 0.00 in0.0 mm 0.00 in/hr0.0 mm/hr 0.00 in0.0 mm
12:20 AM 83.1°F28.4°C 78.6°F25.9°C 86% 5.4 mph WSW8.7 kmh WSW 7.6 mph12.2 kmh 29.59 in1002.0 mb 0.00 in0.0 mm 0.00 in/hr0.0 mm/hr 0.00 in0.0 mm
12:15 AM 83.3°F28.5°C 78.4°F25.8°C 85% 6.4 mph W10.3 kmh W 8.3 mph13.4 kmh 29.59 in1002.0 mb 0.00 in0.0 mm 0.00 in/hr0.0 mm/hr 0.00 in0.0 mm
12:10 AM 83.3°F28.5°C 78.4°F25.8°C 85% 7.9 mph W12.7 kmh W 8.3 mph13.4 kmh 29.59 in1002.0 mb 0.00 in0.0 mm 0.00 in/hr0.0 mm/hr 0.00 in0.0 mm
12:05 AM 83.3°F28.5°C 78.0°F25.6°C 84% 7.4 mph W11.9 kmh W 9.2 mph14.8 kmh 29.59 in1002.0 mb 0.00 in0.0 mm 0.00 in/hr0.0 mm/hr 0.00 in0.0 mm
12:00 AM 83.3°F28.5°C 78.0°F25.6°C 84% 5.9 mph WSW9.5 kmh WSW 9.2 mph14.8 kmh 29.59 in1002.0 mb 0.00 in0.0 mm 0.00 in/hr0.0 mm/hr 0.00 in0.0 mm